sensor_id;sensor_type;location;lat;lon;timestamp;temperature;humidity
5136;DHT22;2586;48.710;9.202;2023-02-14T00:01:31;-0.60;73.20
5136;DHT22;2586;48.710;9.202;2023-02-14T00:03:57;-0.60;99.90
5136;DHT22;2586;48.710;9.202;2023-02-14T00:06:25;-0.60;99.90
5136;DHT22;2586;48.710;9.202;2023-02-14T00:08:51;-0.60;99.90
5136;DHT22;2586;48.710;9.202;2023-02-14T00:11:19;-0.60;99.90
5136;DHT22;2586;48.710;9.202;2023-02-14T00:13:44;-0.60;99.30
5136;DHT22;2586;48.710;9.202;2023-02-14T00:16:31;-0.60;99.90
5136;DHT22;2586;48.710;9.202;2023-02-14T00:18:57;-0.60;99.90
5136;DHT22;2586;48.710;9.202;2023-02-14T00:21:35;-0.60;99.90
5136;DHT22;2586;48.710;9.202;2023-02-14T00:24:03;-0.60;99.90
5136;DHT22;2586;48.710;9.202;2023-02-14T00:26:29;-0.60;1.00
5136;DHT22;2586;48.710;9.202;2023-02-14T00:28:54;-0.60;99.90
5136;DHT22;2586;48.710;9.202;2023-02-14T00:31:20;-0.60;99.90
5136;DHT22;2586;48.710;9.202;2023-02-14T00:33:45;-0.70;1.00
5136;DHT22;2586;48.710;9.202;2023-02-14T00:36:11;-0.80;1.00
5136;DHT22;2586;48.710;9.202;2023-02-14T00:38:37;-0.70;1.00
5136;DHT22;2586;48.710;9.202;2023-02-14T00:41:02;-0.70;1.00
5136;DHT22;2586;48.710;9.202;2023-02-14T00:43:29;-0.80;1.00
5136;DHT22;2586;48.710;9.202;2023-02-14T00:45:55;-0.80;1.00
5136;DHT22;2586;48.710;9.202;2023-02-14T00:48:20;-0.80;1.00
5136;DHT22;2586;48.710;9.202;2023-02-14T00:50:46;-0.80;28.20
5136;DHT22;2586;48.710;9.202;2023-02-14T00:53:12;-0.90;99.90
5136;DHT22;2586;48.710;9.202;2023-02-14T00:55:38;-0.90;99.90
5136;DHT22;2586;48.710;9.202;2023-02-14T00:58:03;-0.90;99.90
5136;DHT22;2586;48.710;9.202;2023-02-14T01:00:29;-0.80;99.90
5136;DHT22;2586;48.710;9.202;2023-02-14T01:02:55;-0.80;99.90
5136;DHT22;2586;48.710;9.202;2023-02-14T01:05:20;-0.90;99.90
5136;DHT22;2586;48.710;9.202;2023-02-14T01:07:46;-0.90;1.00
5136;DHT22;2586;48.710;9.202;2023-02-14T01:10:11;-0.80;1.00
5136;DHT22;2586;48.710;9.202;2023-02-14T01:12:37;-0.80;99.90
5136;DHT22;2586;48.710;9.202;2023-02-14T01:15:03;-0.90;99.90
5136;DHT22;2586;48.710;9.202;2023-02-14T01:17:28;-1.00;99.90
5136;DHT22;2586;48.710;9.202;2023-02-14T01:19:54;-1.00;99.90
5136;DHT22;2586;48.710;9.202;2023-02-14T01:22:20;-0.90;99.90
5136;DHT22;2586;48.710;9.202;2023-02-14T01:24:45;-0.90;99.90
5136;DHT22;2586;48.710;9.202;2023-02-14T01:27:11;-0.90;99.90
5136;DHT22;2586;48.710;9.202;2023-02-14T01:29:37;-1.00;13.90
5136;DHT22;2586;48.710;9.202;2023-02-14T01:32:02;-1.00;1.00
5136;DHT22;2586;48.710;9.202;2023-02-14T01:34:28;-1.10;99.90
5136;DHT22;2586;48.710;9.202;2023-02-14T01:36:53;-1.10;99.90
5136;DHT22;2586;48.710;9.202;2023-02-14T01:39:19;-1.20;12.80
5136;DHT22;2586;48.710;9.202;2023-02-14T01:41:46;-1.20;1.00
5136;DHT22;2586;48.710;9.202;2023-02-14T01:46:41;-1.70;99.90
5136;DHT22;2586;48.710;9.202;2023-02-14T01:49:08;-1.70;1.00
5136;DHT22;2586;48.710;9.202;2023-02-14T01:51:39;-1.70;99.90
5136;DHT22;2586;48.710;9.202;2023-02-14T01:54:06;-1.70;99.90
5136;DHT22;2586;48.710;9.202;2023-02-14T01:56:39;-1.70;99.90
5136;DHT22;2586;48.710;9.202;2023-02-14T01:59:09;-1.70;1.00
5136;DHT22;2586;48.710;9.202;2023-02-14T02:01:36;-1.80;55.50
5136;DHT22;2586;48.710;9.202;2023-02-14T02:04:06;-1.80;99.90
5136;DHT22;2586;48.710;9.202;2023-02-14T02:06:37;-1.80;1.00
5136;DHT22;2586;48.710;9.202;2023-02-14T02:11:45;-1.90;84.00
5136;DHT22;2586;48.710;9.202;2023-02-14T02:14:17;-1.90;99.90
5136;DHT22;2586;48.710;9.202;2023-02-14T02:23:09;-1.70;99.90
5136;DHT22;2586;48.710;9.202;2023-02-14T02:42:59;-1.80;1.00
5136;DHT22;2586;48.710;9.202;2023-02-14T02:45:55;-1.80;1.00
5136;DHT22;2586;48.710;9.202;2023-02-14T02:48:56;-1.70;1.00
5136;DHT22;2586;48.710;9.202;2023-02-14T02:51:52;-1.80;1.00
5136;DHT22;2586;48.710;9.202;2023-02-14T02:54:48;-1.80;1.00
5136;DHT22;2586;48.710;9.202;2023-02-14T02:57:24;-1.70;1.00
5136;DHT22;2586;48.710;9.202;2023-02-14T02:59:53;-1.70;99.90
5136;DHT22;2586;48.710;9.202;2023-02-14T03:02:29;-1.70;99.90
5136;DHT22;2586;48.710;9.202;2023-02-14T03:04:58;-1.70;39.40
5136;DHT22;2586;48.710;9.202;2023-02-14T03:07:36;-1.60;38.10
5136;DHT22;2586;48.710;9.202;2023-02-14T03:10:14;-1.60;11.10
5136;DHT22;2586;48.710;9.202;2023-02-14T03:15:52;-1.50;1.00
5136;DHT22;2586;48.710;9.202;2023-02-14T03:18:53;-1.60;1.00
5136;DHT22;2586;48.710;9.202;2023-02-14T03:21:53;-1.60;99.90
5136;DHT22;2586;48.710;9.202;2023-02-14T03:27:37;-1.60;99.90
5136;DHT22;2586;48.710;9.202;2023-02-14T03:33:00;-1.70;1.00
5136;DHT22;2586;48.710;9.202;2023-02-14T03:35:39;-1.80;1.00
5136;DHT22;2586;48.710;9.202;2023-02-14T03:38:08;-1.80;1.00
5136;DHT22;2586;48.710;9.202;2023-02-14T03:40:47;-1.80;1.00
5136;DHT22;2586;48.710;9.202;2023-02-14T03:43:24;-1.80;1.00
5136;DHT22;2586;48.710;9.202;2023-02-14T03:45:57;-2.00;12.70
5136;DHT22;2586;48.710;9.202;2023-02-14T03:48:24;-2.10;99.90
5136;DHT22;2586;48.710;9.202;2023-02-14T03:50:51;-2.10;99.90
5136;DHT22;2586;48.710;9.202;2023-02-14T03:53:21;-2.20;99.90
5136;DHT22;2586;48.710;9.202;2023-02-14T03:56:00;-2.20;1.00
5136;DHT22;2586;48.710;9.202;2023-02-14T03:58:33;-2.30;1.00
5136;DHT22;2586;48.710;9.202;2023-02-14T04:01:15;-2.30;99.90
5136;DHT22;2586;48.710;9.202;2023-02-14T04:03:42;-2.30;1.00
5136;DHT22;2586;48.710;9.202;2023-02-14T04:06:08;-2.40;1.00
5136;DHT22;2586;48.710;9.202;2023-02-14T04:08:34;-2.40;14.50
5136;DHT22;2586;48.710;9.202;2023-02-14T04:11:00;-2.40;84.20
5136;DHT22;2586;48.710;9.202;2023-02-14T04:13:27;-2.40;99.90
5136;DHT22;2586;48.710;9.202;2023-02-14T04:15:53;-2.30;99.90
5136;DHT22;2586;48.710;9.202;2023-02-14T04:18:19;-2.20;99.90
5136;DHT22;2586;48.710;9.202;2023-02-14T04:21:03;-2.20;99.90
5136;DHT22;2586;48.710;9.202;2023-02-14T04:23:29;-2.20;99.90
5136;DHT22;2586;48.710;9.202;2023-02-14T04:25:54;-2.10;99.90
5136;DHT22;2586;48.710;9.202;2023-02-14T04:28:20;-2.20;99.90
5136;DHT22;2586;48.710;9.202;2023-02-14T04:30:45;-2.20;99.90
5136;DHT22;2586;48.710;9.202;2023-02-14T04:33:11;-2.30;99.90
5136;DHT22;2586;48.710;9.202;2023-02-14T04:35:37;-2.30;99.90
5136;DHT22;2586;48.710;9.202;2023-02-14T04:38:03;-2.20;99.90
5136;DHT22;2586;48.710;9.202;2023-02-14T04:40:29;-2.20;99.90
5136;DHT22;2586;48.710;9.202;2023-02-14T04:42:54;-2.10;1.00
5136;DHT22;2586;48.710;9.202;2023-02-14T04:45:20;-2.00;1.00
5136;DHT22;2586;48.710;9.202;2023-02-14T04:47:46;-2.00;1.00
5136;DHT22;2586;48.710;9.202;2023-02-14T04:50:12;-2.00;1.00
5136;DHT22;2586;48.710;9.202;2023-02-14T04:52:38;-2.00;1.00
5136;DHT22;2586;48.710;9.202;2023-02-14T04:55:04;-1.90;1.00
5136;DHT22;2586;48.710;9.202;2023-02-14T04:57:30;-1.90;1.00
5136;DHT22;2586;48.710;9.202;2023-02-14T04:59:56;-1.90;99.90
5136;DHT22;2586;48.710;9.202;2023-02-14T05:02:22;-1.90;99.90
5136;DHT22;2586;48.710;9.202;2023-02-14T05:04:47;-1.90;1.00
5136;DHT22;2586;48.710;9.202;2023-02-14T05:07:13;-1.90;99.90
5136;DHT22;2586;48.710;9.202;2023-02-14T05:09:38;-1.80;99.90
5136;DHT22;2586;48.710;9.202;2023-02-14T05:12:04;-1.90;99.90
5136;DHT22;2586;48.710;9.202;2023-02-14T05:14:30;-1.90;99.90
5136;DHT22;2586;48.710;9.202;2023-02-14T05:16:55;-2.00;99.90
5136;DHT22;2586;48.710;9.202;2023-02-14T05:19:21;-2.00;99.90
5136;DHT22;2586;48.710;9.202;2023-02-14T05:21:47;-2.10;99.90
5136;DHT22;2586;48.710;9.202;2023-02-14T05:24:12;-2.20;99.90
5136;DHT22;2586;48.710;9.202;2023-02-14T05:26:38;-2.20;99.90
5136;DHT22;2586;48.710;9.202;2023-02-14T05:29:05;-2.20;99.90
5136;DHT22;2586;48.710;9.202;2023-02-14T05:31:31;-2.20;1.00
5136;DHT22;2586;48.710;9.202;2023-02-14T05:33:56;-2.20;1.00
5136;DHT22;2586;48.710;9.202;2023-02-14T05:36:22;-2.20;1.00
5136;DHT22;2586;48.710;9.202;2023-02-14T05:38:47;-2.20;99.90
5136;DHT22;2586;48.710;9.202;2023-02-14T05:41:13;-2.20;99.90
5136;DHT22;2586;48.710;9.202;2023-02-14T05:43:38;-2.20;1.00
5136;DHT22;2586;48.710;9.202;2023-02-14T05:46:04;-2.20;1.00
5136;DHT22;2586;48.710;9.202;2023-02-14T05:48:30;-2.20;99.90
5136;DHT22;2586;48.710;9.202;2023-02-14T05:50:55;-2.30;99.90
5136;DHT22;2586;48.710;9.202;2023-02-14T05:53:21;-2.30;99.90
5136;DHT22;2586;48.710;9.202;2023-02-14T05:55:47;-2.30;1.00
5136;DHT22;2586;48.710;9.202;2023-02-14T05:58:12;-2.30;1.00
5136;DHT22;2586;48.710;9.202;2023-02-14T06:00:38;-2.20;1.00
5136;DHT22;2586;48.710;9.202;2023-02-14T06:03:04;-2.20;1.00
5136;DHT22;2586;48.710;9.202;2023-02-14T06:05:30;-2.20;1.00
5136;DHT22;2586;48.710;9.202;2023-02-14T06:07:55;-2.10;99.90
5136;DHT22;2586;48.710;9.202;2023-02-14T06:10:23;-2.10;99.90
5136;DHT22;2586;48.710;9.202;2023-02-14T06:12:51;-2.10;99.90
5136;DHT22;2586;48.710;9.202;2023-02-14T06:15:17;-2.10;99.90
5136;DHT22;2586;48.710;9.202;2023-02-14T06:17:43;-2.00;99.90
5136;DHT22;2586;48.710;9.202;2023-02-14T06:20:09;-2.00;99.90
5136;DHT22;2586;48.710;9.202;2023-02-14T06:22:36;-2.00;99.90
5136;DHT22;2586;48.710;9.202;2023-02-14T06:25:02;-2.00;99.90
5136;DHT22;2586;48.710;9.202;2023-02-14T06:27:29;-1.90;99.90
5136;DHT22;2586;48.710;9.202;2023-02-14T06:29:54;-1.90;99.90
5136;DHT22;2586;48.710;9.202;2023-02-14T06:32:20;-1.80;99.90
5136;DHT22;2586;48.710;9.202;2023-02-14T06:34:45;-1.90;99.90
5136;DHT22;2586;48.710;9.202;2023-02-14T06:37:11;-1.80;99.90
5136;DHT22;2586;48.710;9.202;2023-02-14T06:39:36;-1.80;99.90
5136;DHT22;2586;48.710;9.202;2023-02-14T06:42:02;-1.70;99.90
5136;DHT22;2586;48.710;9.202;2023-02-14T06:44:28;-1.70;9.30
5136;DHT22;2586;48.710;9.202;2023-02-14T06:46:53;-1.70;1.00
5136;DHT22;2586;48.710;9.202;2023-02-14T06:49:19;-1.70;1.00
5136;DHT22;2586;48.710;9.202;2023-02-14T06:51:45;-1.60;1.00
5136;DHT22;2586;48.710;9.202;2023-02-14T06:54:10;-1.60;1.00
5136;DHT22;2586;48.710;9.202;2023-02-14T06:56:36;-1.50;1.00
5136;DHT22;2586;48.710;9.202;2023-02-14T06:59:01;-1.40;1.00
5136;DHT22;2586;48.710;9.202;2023-02-14T07:01:27;-1.40;1.00
5136;DHT22;2586;48.710;9.202;2023-02-14T07:03:53;-1.40;1.00
5136;DHT22;2586;48.710;9.202;2023-02-14T07:06:18;-1.30;1.00
5136;DHT22;2586;48.710;9.202;2023-02-14T07:08:44;-1.20;99.90
5136;DHT22;2586;48.710;9.202;2023-02-14T07:11:10;-1.20;99.90
5136;DHT22;2586;48.710;9.202;2023-02-14T07:13:35;-1.20;1.00
5136;DHT22;2586;48.710;9.202;2023-02-14T07:16:01;-1.10;1.00
5136;DHT22;2586;48.710;9.202;2023-02-14T07:18:26;-1.10;1.00
5136;DHT22;2586;48.710;9.202;2023-02-14T07:20:52;-1.00;99.90
5136;DHT22;2586;48.710;9.202;2023-02-14T07:23:17;-1.00;1.00
5136;DHT22;2586;48.710;9.202;2023-02-14T07:25:43;-0.90;1.00
5136;DHT22;2586;48.710;9.202;2023-02-14T07:28:09;-0.90;99.90
5136;DHT22;2586;48.710;9.202;2023-02-14T07:30:35;-0.80;1.00
5136;DHT22;2586;48.710;9.202;2023-02-14T07:33:00;-0.80;1.00
5136;DHT22;2586;48.710;9.202;2023-02-14T07:35:26;-0.70;1.00
5136;DHT22;2586;48.710;9.202;2023-02-14T07:37:51;-0.60;1.00
5136;DHT22;2586;48.710;9.202;2023-02-14T07:40:17;-0.40;1.00
5136;DHT22;2586;48.710;9.202;2023-02-14T07:42:47;-0.30;1.00
5136;DHT22;2586;48.710;9.202;2023-02-14T07:45:16;0.00;1.00
5136;DHT22;2586;48.710;9.202;2023-02-14T07:47:42;0.30;1.00
5136;DHT22;2586;48.710;9.202;2023-02-14T07:50:07;0.60;1.00
5136;DHT22;2586;48.710;9.202;2023-02-14T07:52:33;0.80;1.00
5136;DHT22;2586;48.710;9.202;2023-02-14T07:54:59;1.10;99.90
5136;DHT22;2586;48.710;9.202;2023-02-14T07:57:24;1.30;1.00
5136;DHT22;2586;48.710;9.202;2023-02-14T07:59:50;1.60;99.90
5136;DHT22;2586;48.710;9.202;2023-02-14T08:02:15;1.80;1.00
5136;DHT22;2586;48.710;9.202;2023-02-14T08:04:41;2.10;1.00
5136;DHT22;2586;48.710;9.202;2023-02-14T08:07:06;2.40;99.90
5136;DHT22;2586;48.710;9.202;2023-02-14T08:09:33;2.50;99.90
5136;DHT22;2586;48.710;9.202;2023-02-14T08:11:59;2.80;99.90
5136;DHT22;2586;48.710;9.202;2023-02-14T08:14:43;2.90;1.00
5136;DHT22;2586;48.710;9.202;2023-02-14T08:17:10;3.00;1.00
5136;DHT22;2586;48.710;9.202;2023-02-14T08:19:37;3.00;1.00
5136;DHT22;2586;48.710;9.202;2023-02-14T08:22:03;3.00;1.00
5136;DHT22;2586;48.710;9.202;2023-02-14T08:24:29;3.20;1.00
5136;DHT22;2586;48.710;9.202;2023-02-14T08:26:55;3.50;99.90
5136;DHT22;2586;48.710;9.202;2023-02-14T08:29:20;3.60;99.90
5136;DHT22;2586;48.710;9.202;2023-02-14T08:31:46;3.70;99.90
5136;DHT22;2586;48.710;9.202;2023-02-14T08:34:12;3.90;99.90
5136;DHT22;2586;48.710;9.202;2023-02-14T08:36:39;3.90;51.90
5136;DHT22;2586;48.710;9.202;2023-02-14T08:39:05;4.10;99.90
5136;DHT22;2586;48.710;9.202;2023-02-14T08:41:30;4.20;99.90
5136;DHT22;2586;48.710;9.202;2023-02-14T08:43:56;4.20;1.00
5136;DHT22;2586;48.710;9.202;2023-02-14T08:46:22;4.40;1.00
5136;DHT22;2586;48.710;9.202;2023-02-14T08:48:48;4.50;1.00
5136;DHT22;2586;48.710;9.202;2023-02-14T08:51:15;4.70;1.00
5136;DHT22;2586;48.710;9.202;2023-02-14T08:53:41;4.80;1.00
5136;DHT22;2586;48.710;9.202;2023-02-14T08:56:12;5.00;1.00
5136;DHT22;2586;48.710;9.202;2023-02-14T08:58:39;5.10;72.10
5136;DHT22;2586;48.710;9.202;2023-02-14T09:01:16;5.10;75.70
5136;DHT22;2586;48.710;9.202;2023-02-14T09:03:42;5.20;1.00
5136;DHT22;2586;48.710;9.202;2023-02-14T09:06:11;5.30;8.10
5136;DHT22;2586;48.710;9.202;2023-02-14T09:08:39;5.60;66.10
5136;DHT22;2586;48.710;9.202;2023-02-14T09:11:11;5.90;1.00
5136;DHT22;2586;48.710;9.202;2023-02-14T09:13:38;5.90;1.00
5136;DHT22;2586;48.710;9.202;2023-02-14T09:16:05;5.90;1.00
5136;DHT22;2586;48.710;9.202;2023-02-14T09:18:30;6.00;1.00
5136;DHT22;2586;48.710;9.202;2023-02-14T09:20:56;6.00;99.90
5136;DHT22;2586;48.710;9.202;2023-02-14T09:23:22;5.70;1.00
5136;DHT22;2586;48.710;9.202;2023-02-14T09:25:47;6.10;1.00
5136;DHT22;2586;48.710;9.202;2023-02-14T09:28:13;6.30;1.00
5136;DHT22;2586;48.710;9.202;2023-02-14T09:30:38;6.30;99.90
5136;DHT22;2586;48.710;9.202;2023-02-14T09:33:04;6.40;1.00
5136;DHT22;2586;48.710;9.202;2023-02-14T09:35:30;6.90;1.00
5136;DHT22;2586;48.710;9.202;2023-02-14T09:38:14;7.10;99.90
5136;DHT22;2586;48.710;9.202;2023-02-14T09:40:39;7.30;99.90
5136;DHT22;2586;48.710;9.202;2023-02-14T09:44:01;7.20;99.90
5136;DHT22;2586;48.710;9.202;2023-02-14T09:46:10;7.10;99.90
5136;DHT22;2586;48.710;9.202;2023-02-14T09:48:41;7.30;99.90
5136;DHT22;2586;48.710;9.202;2023-02-14T09:51:13;7.70;99.90
5136;DHT22;2586;48.710;9.202;2023-02-14T09:53:46;7.90;99.90
5136;DHT22;2586;48.710;9.202;2023-02-14T09:56:16;8.20;99.90
5136;DHT22;2586;48.710;9.202;2023-02-14T09:58:54;8.20;99.90
5136;DHT22;2586;48.710;9.202;2023-02-14T10:01:34;8.50;99.90
5136;DHT22;2586;48.710;9.202;2023-02-14T10:11:58;9.00;99.90
5136;DHT22;2586;48.710;9.202;2023-02-14T10:14:28;9.30;99.90
5136;DHT22;2586;48.710;9.202;2023-02-14T10:17:00;9.70;99.90
5136;DHT22;2586;48.710;9.202;2023-02-14T10:19:53;10.10;99.90
5136;DHT22;2586;48.710;9.202;2023-02-14T10:25:36;10.10;99.90
5136;DHT22;2586;48.710;9.202;2023-02-14T10:28:04;10.00;99.90
5136;DHT22;2586;48.710;9.202;2023-02-14T10:30:37;9.80;99.90
5136;DHT22;2586;48.710;9.202;2023-02-14T10:33:16;9.90;99.90
5136;DHT22;2586;48.710;9.202;2023-02-14T10:35:55;10.10;99.90
5136;DHT22;2586;48.710;9.202;2023-02-14T10:46:53;11.10;95.20
5136;DHT22;2586;48.710;9.202;2023-02-14T10:49:39;11.00;91.10
5136;DHT22;2586;48.710;9.202;2023-02-14T10:52:24;11.00;90.40
5136;DHT22;2586;48.710;9.202;2023-02-14T10:54:56;11.10;91.90
5136;DHT22;2586;48.710;9.202;2023-02-14T10:57:35;11.50;95.80
5136;DHT22;2586;48.710;9.202;2023-02-14T11:00:25;11.80;94.20
5136;DHT22;2586;48.710;9.202;2023-02-14T11:02:59;11.70;84.30
5136;DHT22;2586;48.710;9.202;2023-02-14T11:08:00;11.80;78.40
5136;DHT22;2586;48.710;9.202;2023-02-14T11:10:29;11.70;79.60
5136;DHT22;2586;48.710;9.202;2023-02-14T11:12:55;12.00;84.70
5136;DHT22;2586;48.710;9.202;2023-02-14T11:15:31;12.30;88.40
5136;DHT22;2586;48.710;9.202;2023-02-14T11:18:21;12.80;81.00
5136;DHT22;2586;48.710;9.202;2023-02-14T11:26:30;13.40;53.90
5136;DHT22;2586;48.710;9.202;2023-02-14T11:29:09;13.40;52.50
5136;DHT22;2586;48.710;9.202;2023-02-14T11:31:37;13.60;52.70
5136;DHT22;2586;48.710;9.202;2023-02-14T11:34:36;14.10;47.50
5136;DHT22;2586;48.710;9.202;2023-02-14T11:39:48;14.40;47.40
5136;DHT22;2586;48.710;9.202;2023-02-14T11:44:59;15.00;41.80
5136;DHT22;2586;48.710;9.202;2023-02-14T11:47:28;15.00;36.40
5136;DHT22;2586;48.710;9.202;2023-02-14T11:49:59;15.10;39.20
5136;DHT22;2586;48.710;9.202;2023-02-14T11:52:26;15.30;31.70
5136;DHT22;2586;48.710;9.202;2023-02-14T11:54:55;15.40;30.60
5136;DHT22;2586;48.710;9.202;2023-02-14T11:57:47;15.40;26.50
5136;DHT22;2586;48.710;9.202;2023-02-14T12:00:18;15.50;25.10
5136;DHT22;2586;48.710;9.202;2023-02-14T12:02:47;15.50;20.80
5136;DHT22;2586;48.710;9.202;2023-02-14T12:05:33;15.80;19.60
5136;DHT22;2586;48.710;9.202;2023-02-14T12:08:02;16.20;22.60
5136;DHT22;2586;48.710;9.202;2023-02-14T12:10:33;16.20;22.00
5136;DHT22;2586;48.710;9.202;2023-02-14T12:18:28;16.60;14.30
5136;DHT22;2586;48.710;9.202;2023-02-14T12:23:51;16.50;14.00
5136;DHT22;2586;48.710;9.202;2023-02-14T12:31:35;17.40;11.10
5136;DHT22;2586;48.710;9.202;2023-02-14T12:34:02;17.60;9.30
5136;DHT22;2586;48.710;9.202;2023-02-14T12:45:08;18.10;1.00
5136;DHT22;2586;48.710;9.202;2023-02-14T12:53:41;18.20;1.00
5136;DHT22;2586;48.710;9.202;2023-02-14T13:01:56;18.20;1.00
5136;DHT22;2586;48.710;9.202;2023-02-14T13:07:25;18.20;1.00
5136;DHT22;2586;48.710;9.202;2023-02-14T13:10:21;18.20;1.00
5136;DHT22;2586;48.710;9.202;2023-02-14T13:13:02;18.20;1.00
5136;DHT22;2586;48.710;9.202;2023-02-14T13:18:42;18.50;1.00
5136;DHT22;2586;48.710;9.202;2023-02-14T13:21:14;18.90;1.00
5136;DHT22;2586;48.710;9.202;2023-02-14T13:23:44;19.20;1.00
5136;DHT22;2586;48.710;9.202;2023-02-14T13:26:11;19.30;1.00
5136;DHT22;2586;48.710;9.202;2023-02-14T13:28:49;19.50;1.00
5136;DHT22;2586;48.710;9.202;2023-02-14T13:31:17;19.20;1.00
5136;DHT22;2586;48.710;9.202;2023-02-14T13:36:37;19.00;1.00
5136;DHT22;2586;48.710;9.202;2023-02-14T13:39:03;19.40;1.00
5136;DHT22;2586;48.710;9.202;2023-02-14T13:41:29;19.70;1.00
5136;DHT22;2586;48.710;9.202;2023-02-14T13:44:00;20.20;1.00
5136;DHT22;2586;48.710;9.202;2023-02-14T13:49:29;20.30;1.00
5136;DHT22;2586;48.710;9.202;2023-02-14T13:52:01;20.00;1.00
5136;DHT22;2586;48.710;9.202;2023-02-14T13:54:35;20.20;1.00
5136;DHT22;2586;48.710;9.202;2023-02-14T14:02:50;20.10;1.00
5136;DHT22;2586;48.710;9.202;2023-02-14T14:10:52;20.10;1.00
5136;DHT22;2586;48.710;9.202;2023-02-14T14:19:33;20.40;1.00
5136;DHT22;2586;48.710;9.202;2023-02-14T14:22:02;20.70;1.00
5136;DHT22;2586;48.710;9.202;2023-02-14T14:24:33;20.90;1.00
5136;DHT22;2586;48.710;9.202;2023-02-14T14:27:06;21.20;1.00
5136;DHT22;2586;48.710;9.202;2023-02-14T14:29:46;20.70;1.00
5136;DHT22;2586;48.710;9.202;2023-02-14T14:32:18;20.10;1.00
5136;DHT22;2586;48.710;9.202;2023-02-14T14:35:01;20.40;1.00
5136;DHT22;2586;48.710;9.202;2023-02-14T14:37:35;20.40;1.00
5136;DHT22;2586;48.710;9.202;2023-02-14T14:40:03;20.30;1.00
5136;DHT22;2586;48.710;9.202;2023-02-14T14:42:36;20.70;1.00
5136;DHT22;2586;48.710;9.202;2023-02-14T14:47:45;21.10;1.00
5136;DHT22;2586;48.710;9.202;2023-02-14T14:50:28;20.80;1.00
5136;DHT22;2586;48.710;9.202;2023-02-14T14:53:08;21.00;1.00
5136;DHT22;2586;48.710;9.202;2023-02-14T14:55:44;21.10;1.00
5136;DHT22;2586;48.710;9.202;2023-02-14T14:58:37;20.70;1.00
5136;DHT22;2586;48.710;9.202;2023-02-14T15:01:04;20.20;1.00
5136;DHT22;2586;48.710;9.202;2023-02-14T15:03:31;19.70;1.00
5136;DHT22;2586;48.710;9.202;2023-02-14T15:06:15;19.40;1.00
5136;DHT22;2586;48.710;9.202;2023-02-14T15:08:41;19.20;1.00
5136;DHT22;2586;48.710;9.202;2023-02-14T15:13:48;18.50;1.00
5136;DHT22;2586;48.710;9.202;2023-02-14T15:16:23;18.10;1.00
5136;DHT22;2586;48.710;9.202;2023-02-14T15:18:52;18.00;1.00
5136;DHT22;2586;48.710;9.202;2023-02-14T15:21:19;18.20;1.00
5136;DHT22;2586;48.710;9.202;2023-02-14T15:23:45;18.00;1.00
5136;DHT22;2586;48.710;9.202;2023-02-14T15:26:27;17.90;1.00
5136;DHT22;2586;48.710;9.202;2023-02-14T15:29:05;17.50;1.00
5136;DHT22;2586;48.710;9.202;2023-02-14T15:31:36;17.20;1.00
5136;DHT22;2586;48.710;9.202;2023-02-14T15:34:03;17.50;1.00
5136;DHT22;2586;48.710;9.202;2023-02-14T15:36:31;17.50;1.00
5136;DHT22;2586;48.710;9.202;2023-02-14T15:38:59;17.80;1.00
5136;DHT22;2586;48.710;9.202;2023-02-14T15:41:26;18.00;1.00
5136;DHT22;2586;48.710;9.202;2023-02-14T15:43:54;17.40;1.00
5136;DHT22;2586;48.710;9.202;2023-02-14T15:48:49;17.20;1.00
5136;DHT22;2586;48.710;9.202;2023-02-14T15:51:27;16.80;1.00
5136;DHT22;2586;48.710;9.202;2023-02-14T15:54:00;16.10;1.00
5136;DHT22;2586;48.710;9.202;2023-02-14T15:56:34;15.00;1.00
5136;DHT22;2586;48.710;9.202;2023-02-14T15:59:22;14.20;1.00
5136;DHT22;2586;48.710;9.202;2023-02-14T16:01:59;13.00;1.00
5136;DHT22;2586;48.710;9.202;2023-02-14T16:04:31;12.40;1.00
5136;DHT22;2586;48.710;9.202;2023-02-14T16:07:23;11.90;1.00
5136;DHT22;2586;48.710;9.202;2023-02-14T16:10:12;11.50;8.00
5136;DHT22;2586;48.710;9.202;2023-02-14T16:12:38;11.10;21.50
5136;DHT22;2586;48.710;9.202;2023-02-14T16:15:20;10.80;41.90
5136;DHT22;2586;48.710;9.202;2023-02-14T16:17:47;10.60;64.80
5136;DHT22;2586;48.710;9.202;2023-02-14T16:23:25;10.70;65.90
5136;DHT22;2586;48.710;9.202;2023-02-14T16:25:51;10.30;85.20
5136;DHT22;2586;48.710;9.202;2023-02-14T16:28:17;9.90;99.90
5136;DHT22;2586;48.710;9.202;2023-02-14T16:30:44;9.60;99.90
5136;DHT22;2586;48.710;9.202;2023-02-14T16:33:20;9.30;99.90
5136;DHT22;2586;48.710;9.202;2023-02-14T16:35:47;9.00;99.90
5136;DHT22;2586;48.710;9.202;2023-02-14T16:38:15;8.80;99.90
5136;DHT22;2586;48.710;9.202;2023-02-14T16:40:45;8.70;99.90
5136;DHT22;2586;48.710;9.202;2023-02-14T16:43:15;8.50;99.90
5136;DHT22;2586;48.710;9.202;2023-02-14T16:45:42;8.40;1.00
5136;DHT22;2586;48.710;9.202;2023-02-14T16:48:08;8.20;1.00
5136;DHT22;2586;48.710;9.202;2023-02-14T16:50:36;8.10;1.00
5136;DHT22;2586;48.710;9.202;2023-02-14T16:53:02;7.90;1.00
5136;DHT22;2586;48.710;9.202;2023-02-14T16:55:29;7.80;1.00
5136;DHT22;2586;48.710;9.202;2023-02-14T16:57:56;7.70;1.00
5136;DHT22;2586;48.710;9.202;2023-02-14T17:00:22;7.60;1.00
5136;DHT22;2586;48.710;9.202;2023-02-14T17:02:48;7.50;1.00
5136;DHT22;2586;48.710;9.202;2023-02-14T17:05:14;7.40;1.00
5136;DHT22;2586;48.710;9.202;2023-02-14T17:07:41;7.20;1.00
5136;DHT22;2586;48.710;9.202;2023-02-14T17:10:15;6.90;99.90
5136;DHT22;2586;48.710;9.202;2023-02-14T17:12:44;6.70;99.90
5136;DHT22;2586;48.710;9.202;2023-02-14T17:15:18;6.50;99.90
5136;DHT22;2586;48.710;9.202;2023-02-14T17:17:46;6.40;1.00
5136;DHT22;2586;48.710;9.202;2023-02-14T17:20:13;6.30;1.00
5136;DHT22;2586;48.710;9.202;2023-02-14T17:22:39;6.30;1.00
5136;DHT22;2586;48.710;9.202;2023-02-14T17:25:07;6.30;1.00
5136;DHT22;2586;48.710;9.202;2023-02-14T17:27:33;6.10;99.90
5136;DHT22;2586;48.710;9.202;2023-02-14T17:29:59;6.10;1.00
5136;DHT22;2586;48.710;9.202;2023-02-14T17:32:25;6.10;1.00
5136;DHT22;2586;48.710;9.202;2023-02-14T17:34:51;6.10;1.00
5136;DHT22;2586;48.710;9.202;2023-02-14T17:37:16;6.00;1.00
5136;DHT22;2586;48.710;9.202;2023-02-14T17:39:43;6.00;1.00
5136;DHT22;2586;48.710;9.202;2023-02-14T17:42:09;5.90;1.00
5136;DHT22;2586;48.710;9.202;2023-02-14T17:44:35;5.80;1.00
5136;DHT22;2586;48.710;9.202;2023-02-14T17:47:03;5.50;1.00
5136;DHT22;2586;48.710;9.202;2023-02-14T17:49:29;5.40;99.90
5136;DHT22;2586;48.710;9.202;2023-02-14T17:51:54;5.30;99.90
5136;DHT22;2586;48.710;9.202;2023-02-14T17:54:21;5.20;99.90
5136;DHT22;2586;48.710;9.202;2023-02-14T17:56:47;5.30;99.90
5136;DHT22;2586;48.710;9.202;2023-02-14T17:59:12;5.30;99.90
5136;DHT22;2586;48.710;9.202;2023-02-14T18:01:38;5.20;99.90
5136;DHT22;2586;48.710;9.202;2023-02-14T18:04:03;5.10;99.90
5136;DHT22;2586;48.710;9.202;2023-02-14T18:06:30;5.00;1.00
5136;DHT22;2586;48.710;9.202;2023-02-14T18:08:56;4.90;1.00
5136;DHT22;2586;48.710;9.202;2023-02-14T18:11:23;4.90;1.00
5136;DHT22;2586;48.710;9.202;2023-02-14T18:13:51;4.90;1.00
5136;DHT22;2586;48.710;9.202;2023-02-14T18:16:18;4.90;1.00
5136;DHT22;2586;48.710;9.202;2023-02-14T18:18:44;4.90;1.00
5136;DHT22;2586;48.710;9.202;2023-02-14T18:21:12;4.90;1.00
5136;DHT22;2586;48.710;9.202;2023-02-14T18:23:38;4.90;1.00
5136;DHT22;2586;48.710;9.202;2023-02-14T18:26:07;4.80;1.00
5136;DHT22;2586;48.710;9.202;2023-02-14T18:28:34;4.80;1.00
5136;DHT22;2586;48.710;9.202;2023-02-14T18:31:12;4.80;9.10
5136;DHT22;2586;48.710;9.202;2023-02-14T18:33:38;4.70;70.10
5136;DHT22;2586;48.710;9.202;2023-02-14T18:36:06;4.70;99.90
5136;DHT22;2586;48.710;9.202;2023-02-14T18:38:33;4.50;99.90
5136;DHT22;2586;48.710;9.202;2023-02-14T18:41:03;4.40;99.90
5136;DHT22;2586;48.710;9.202;2023-02-14T18:43:30;4.30;1.00
5136;DHT22;2586;48.710;9.202;2023-02-14T18:46:04;4.20;1.00
5136;DHT22;2586;48.710;9.202;2023-02-14T18:48:30;4.20;5.10
5136;DHT22;2586;48.710;9.202;2023-02-14T18:51:06;4.20;1.00
5136;DHT22;2586;48.710;9.202;2023-02-14T18:53:33;4.30;99.90
5136;DHT22;2586;48.710;9.202;2023-02-14T18:56:02;4.30;1.00